Atmautluak, Alaska
Current Conditions -  °F | °C
As of 6:53 AM on Friday 31 Oct 2014 (Local Time) from PABE Reporting Station
Clear Clear  
Wind Chill: -4°   Ceiling: Unl
Heat Index: 12°   Visibility: 10mi
Dew Point:   Wind: 15mph
Humidity: 88%   Direction: 30°NNE
Pressure: 29.25"   Gusts: NA
Location:  60.7494°N, 161.727°W
Report Text: PABE 311453Z 03013KT 10SM CLR M11/M13 A2925 RMK SLP908 T11111128 56037 VIA AUTODIAL
Loading
Personal Weather Stations






























Interactive Weather Map
Tropical Storm Tracking
New forecast layout! Learn more

10-Day Weather Forecast

Advertisements
Track Severe Weather on mobile